TAF KGFK
KGFK 270520Z 2706/2806 18005KT P6SM BKN150 FM270900 32009KT P6SM OVC080 FM271500 32016G24KT P6SM BKN200 FM280100 30012KT P6SM FEW250=
METAR KGFK
WC KGFK
WS KGFK
WV KGFK